Nibulon 1 — UUAS4 — position and weather

sailwx.info

Track history (hours):
 
Tides and Currents Weather Stations Pressure Air Temp Water Temp Dewpoint Dewpoint Depression Visibility Wind Speed Wind Dir Waves Ship Positions

Nibulon 1

Last reported at 2016-May-23 17:33 UTC. Time now 2016-May-24 21:35 UTC.
Position N 47°31' E 034°47'.

Length 38 m; draft 2.6 m.

Type: Tug. MMSI: 272641000.

Date/timePositionNaut miles runAvg speedWind from/ knotsBaromVisibWave heightAir tempDewpointWater temp
2016-May-23 17:33N 47°31' E 034°47'9 3.8
2016-May-23 15:05N 47°34' E 035°00'2 3.7
2016-May-23 14:33N 47°35' E 035°02'4 3.8
2016-May-23 13:33N 47°38' E 035°06'4 4.1
2016-May-23 12:33N 47°42' E 035°08'4 3.9
2016-May-23 11:33N 47°46' E 035°09'3 2.7
2016-May-23 10:33N 47°49' E 035°09'1 0.6
2016-May-23 09:33N 47°49' E 035°09'3 3.4
2016-May-23 08:32N 47°52' E 035°06'2 1.6
2016-May-23 07:33N 47°53' E 035°06'2 1.7
2016-May-23 06:33N 47°52' E 035°05'3 3.3
2016-May-23 05:33N 47°49' E 035°08'3 3.3
2016-May-23 04:33N 47°52' E 035°05'0 0.3
2016-May-23 03:33N 47°52' E 035°06'1 1.3
2016-May-23 02:32N 47°53' E 035°06'0 0.0
2016-May-23 01:33N 47°53' E 035°06'2 1.9
2016-May-23 00:33N 47°55' E 035°07'4 4.0
2016-May-22 23:33N 47°59' E 035°08'  
2016-May-15 09:33N 48°02' E 035°07'6 5.7
2016-May-15 08:34N 47°57' E 035°07'3 3.5
2016-May-15 07:34N 47°53' E 035°06'1 1.4
2016-May-15 06:32N 47°52' E 035°05'4 4.3
2016-May-15 05:33N 47°48' E 035°09'4 4.0
2016-May-15 04:34N 47°52' E 035°06'0 0.4
2016-May-15 03:33N 47°52' E 035°06'1 0.6
2016-May-15 02:33N 47°52' E 035°05'2 1.6
2016-May-15 01:33N 47°50' E 035°06'3 2.7
2016-May-15 00:30N 47°48' E 035°09'0 0.1
2016-May-14 23:30N 47°48' E 035°09'0 0.0
2016-May-14 22:30N 47°48' E 035°09'0 0.0
2016-May-14 21:30N 47°48' E 035°09'0 0.1
2016-May-14 20:33N 47°48' E 035°10'0 0.1
2016-May-14 19:31N 47°48' E 035°10'0 0.0
2016-May-14 18:31N 47°48' E 035°10'0 0.0
2016-May-14 17:31N 47°48' E 035°10'1 1.4
2016-May-14 16:34N 47°47' E 035°09'5 4.9
2016-May-14 15:34N 47°42' E 035°08'5 4.9
2016-May-14 14:33N 47°38' E 035°05'10 4.9
2016-May-14 12:27N 47°33' E 034°51'  
Track history (hours):
 
Tides and Currents Weather Stations Pressure Air Temp Water Temp Dewpoint Dewpoint Depression Visibility Wind Speed Wind Dir Waves Ship Positions

Nibulon 1

Last reported at 2016-May-23 17:33 UTC. Time now 2016-May-24 21:35 UTC.
Position N 47°31' E 034°47'.

Length 38 m; draft 2.6 m.

Type: Tug. MMSI: 272641000.

Date/timePositionNaut miles runAvg speedWind from/ knotsBaromVisibWave heightAir tempDewpointWater temp
2016-May-23 17:33N 47°31' E 034°47'9 3.8
2016-May-23 15:05N 47°34' E 035°00'2 3.7
2016-May-23 14:33N 47°35' E 035°02'4 3.8
2016-May-23 13:33N 47°38' E 035°06'4 4.1
2016-May-23 12:33N 47°42' E 035°08'4 3.9
2016-May-23 11:33N 47°46' E 035°09'3 2.7
2016-May-23 10:33N 47°49' E 035°09'1 0.6
2016-May-23 09:33N 47°49' E 035°09'3 3.4
2016-May-23 08:32N 47°52' E 035°06'2 1.6
2016-May-23 07:33N 47°53' E 035°06'2 1.7
2016-May-23 06:33N 47°52' E 035°05'3 3.3
2016-May-23 05:33N 47°49' E 035°08'3 3.3
2016-May-23 04:33N 47°52' E 035°05'0 0.3
2016-May-23 03:33N 47°52' E 035°06'1 1.3
2016-May-23 02:32N 47°53' E 035°06'0 0.0
2016-May-23 01:33N 47°53' E 035°06'2 1.9
2016-May-23 00:33N 47°55' E 035°07'4 4.0
2016-May-22 23:33N 47°59' E 035°08'  
2016-May-15 09:33N 48°02' E 035°07'6 5.7
2016-May-15 08:34N 47°57' E 035°07'3 3.5
2016-May-15 07:34N 47°53' E 035°06'1 1.4
2016-May-15 06:32N 47°52' E 035°05'4 4.3
2016-May-15 05:33N 47°48' E 035°09'4 4.0
2016-May-15 04:34N 47°52' E 035°06'0 0.4
2016-May-15 03:33N 47°52' E 035°06'1 0.6
2016-May-15 02:33N 47°52' E 035°05'2 1.6
2016-May-15 01:33N 47°50' E 035°06'3 2.7
2016-May-15 00:30N 47°48' E 035°09'0 0.1
2016-May-14 23:30N 47°48' E 035°09'0 0.0
2016-May-14 22:30N 47°48' E 035°09'0 0.0
2016-May-14 21:30N 47°48' E 035°09'0 0.1
2016-May-14 20:33N 47°48' E 035°10'0 0.1
2016-May-14 19:31N 47°48' E 035°10'0 0.0
2016-May-14 18:31N 47°48' E 035°10'0 0.0
2016-May-14 17:31N 47°48' E 035°10'1 1.4
2016-May-14 16:34N 47°47' E 035°09'5 4.9
2016-May-14 15:34N 47°42' E 035°08'5 4.9
2016-May-14 14:33N 47°38' E 035°05'10 4.9
2016-May-14 12:27N 47°33' E 034°51'  

Dump ship's entire track history